Time;durP1;ratioP1;P1;durP2;ratioP2;P2;SDS_P1;SDS_P2;PMS_P1;PMS_P2;Temp;Humidity;BMP_temperature;BMP_pressure;BME280_temperature;BME280_humidity;BME280_pressure;Samples;Min_cycle;Max_cycle;Signal;HPM_P1;HPM_P2
2022/03/07 00:02:02;;;;;;;6.00;3.70;;;;;;;12.83;29.92;96412.50;5033726;28;20029;-26
2022/03/07 00:04:28;;;;;;;3.97;3.15;;;;;;;12.81;29.91;96405.97;5034227;28;20049;-26
2022/03/07 00:06:54;;;;;;;6.15;3.70;;;;;;;12.77;30.09;96418.91;5034732;28;20033;-26
2022/03/07 00:09:19;;;;;;;5.85;3.80;;;;;;;12.73;30.06;96410.13;5034703;28;20026;-26
2022/03/07 00:11:45;;;;;;;4.78;3.50;;;;;;;12.81;29.85;96422.28;5033725;28;20083;-27
2022/03/07 00:14:12;;;;;;;5.72;3.63;;;;;;;12.73;29.94;96421.03;5034416;28;20037;-26
2022/03/07 00:16:37;;;;;;;5.60;4.10;;;;;;;12.81;29.86;96425.00;5034585;28;20159;-26
2022/03/07 00:19:03;;;;;;;6.10;3.60;;;;;;;12.76;30.02;96418.16;5034662;28;20025;-26
2022/03/07 00:21:29;;;;;;;5.43;3.78;;;;;;;12.69;30.02;96417.66;5033541;28;20577;-26
2022/03/07 00:23:55;;;;;;;5.82;3.80;;;;;;;12.68;30.57;96416.13;5034396;28;20505;-27
2022/03/07 00:26:21;;;;;;;4.28;3.42;;;;;;;12.71;30.17;96420.69;5034430;28;20541;-27
2022/03/07 00:28:48;;;;;;;6.45;3.83;;;;;;;12.67;30.36;96411.88;5034233;28;20049;-27
2022/03/07 00:31:14;;;;;;;6.70;4.38;;;;;;;12.71;30.57;96409.81;5033922;28;20056;-26
2022/03/07 00:33:41;;;;;;;5.40;3.42;;;;;;;12.69;30.66;96414.94;5033685;28;20025;-26
2022/03/07 00:36:07;;;;;;;5.45;3.60;;;;;;;12.71;30.66;96418.72;5034162;28;20243;-28
2022/03/07 00:38:33;;;;;;;4.93;3.35;;;;;;;12.73;30.59;96421.78;5034165;28;20021;-26
2022/03/07 00:41:00;;;;;;;6.30;3.83;;;;;;;12.69;30.44;96423.09;5033527;28;20488;-26
2022/03/07 00:43:25;;;;;;;6.82;4.03;;;;;;;12.62;30.45;96423.31;5033469;28;20044;-27
2022/03/07 00:45:51;;;;;;;5.63;3.47;;;;;;;12.72;30.45;96424.94;5034154;28;20025;-26
2022/03/07 00:48:18;;;;;;;6.97;3.88;;;;;;;12.69;30.45;96433.97;5034024;28;20116;-28
2022/03/07 00:50:46;;;;;;;5.00;3.40;;;;;;;12.59;30.63;96420.28;5033924;28;20393;-26
2022/03/07 00:53:12;;;;;;;5.47;3.67;;;;;;;12.63;30.64;96422.88;5032635;28;20029;-26
2022/03/07 00:55:38;;;;;;;7.82;3.67;;;;;;;12.62;30.51;96421.34;5033194;28;20083;-27
2022/03/07 00:58:04;;;;;;;5.75;3.65;;;;;;;12.61;30.61;96414.38;5033881;28;20037;-26
2022/03/07 01:00:29;;;;;;;5.75;3.58;;;;;;;12.68;30.16;96413.41;5033841;28;20037;-26
2022/03/07 01:02:55;;;;;;;5.70;3.92;;;;;;;12.72;30.21;96408.63;5030977;28;20053;-27
2022/03/07 01:05:21;;;;;;;7.90;4.07;;;;;;;12.70;30.28;96417.22;5033190;28;20496;-25
2022/03/07 01:07:46;;;;;;;5.45;3.83;;;;;;;12.70;30.55;96403.59;5032392;28;20029;-26
2022/03/07 01:10:13;;;;;;;5.43;3.40;;;;;;;12.62;30.49;96399.59;5032271;28;20378;-27
2022/03/07 01:12:39;;;;;;;7.18;3.85;;;;;;;12.58;30.70;96401.69;5032269;28;20037;-26
2022/03/07 01:15:05;;;;;;;6.47;3.67;;;;;;;12.62;30.58;96405.03;5033486;28;20029;-26
2022/03/07 01:17:31;;;;;;;7.30;4.13;;;;;;;12.69;30.73;96396.63;5033437;28;20104;-27
2022/03/07 01:19:57;;;;;;;5.97;3.88;;;;;;;12.74;30.38;96406.19;5033485;28;20175;-29
2022/03/07 01:22:22;;;;;;;8.13;3.85;;;;;;;12.72;30.92;96403.94;5033334;28;20025;-27
2022/03/07 01:24:48;;;;;;;8.02;3.90;;;;;;;12.68;30.85;96391.63;5033997;28;20061;-26
2022/03/07 01:27:14;;;;;;;6.97;4.13;;;;;;;12.68;30.60;96397.06;5033996;28;20025;-26
2022/03/07 01:29:39;;;;;;;6.00;3.95;;;;;;;12.73;30.53;96397.28;5034089;28;20056;-27
2022/03/07 01:32:05;;;;;;;5.82;3.95;;;;;;;12.69;30.68;96390.44;5033662;28;20029;-26
2022/03/07 01:34:31;;;;;;;6.28;4.28;;;;;;;12.55;30.79;96392.44;5033974;28;20029;-26
2022/03/07 01:36:57;;;;;;;4.90;3.50;;;;;;;12.64;30.44;96390.97;5033711;28;20187;-26
2022/03/07 01:39:22;;;;;;;6.03;3.78;;;;;;;12.66;30.82;96394.03;5033811;28;20022;-26
2022/03/07 01:41:48;;;;;;;5.05;3.72;;;;;;;12.63;30.95;96384.78;5033730;28;20028;-27
2022/03/07 01:44:25;;;;;;;5.20;3.65;;;;;;;12.66;30.74;96392.06;5033553;28;20021;-26
2022/03/07 01:46:51;;;;;;;6.35;3.90;;;;;;;12.63;30.90;96394.91;5033464;28;20497;-26
2022/03/07 01:49:18;;;;;;;5.00;3.58;;;;;;;12.66;30.69;96388.59;5032576;28;20041;-27
2022/03/07 01:51:45;;;;;;;5.00;4.00;;;;;;;12.66;30.95;96388.59;5033451;28;20031;-27
2022/03/07 01:54:16;;;;;;;4.68;3.42;;;;;;;12.58;30.80;96377.97;5033630;28;20075;-26
2022/03/07 01:56:45;;;;;;;6.38;4.00;;;;;;;12.70;30.63;96373.69;5033555;28;20494;-26
2022/03/07 01:59:20;;;;;;;5.70;3.80;;;;;;;12.66;30.77;96380.44;5033502;28;20033;-26
2022/03/07 02:01:45;;;;;;;5.65;3.55;;;;;;;12.64;31.04;96380.09;5033632;28;20025;-26
2022/03/07 02:04:11;;;;;;;4.65;3.80;;;;;;;12.68;30.91;96381.50;5033172;28;20402;-26
2022/03/07 02:06:38;;;;;;;5.25;3.78;;;;;;;12.63;30.74;96384.03;5032922;28;20216;-27
2022/03/07 02:09:05;;;;;;;6.20;3.92;;;;;;;12.57;30.91;96383.84;5033523;28;20100;-26
2022/03/07 02:11:32;;;;;;;6.78;4.13;;;;;;;12.54;31.03;96376.56;5033707;28;20067;-26
2022/03/07 02:13:58;;;;;;;6.72;3.90;;;;;;;12.61;30.88;96375.56;5032256;28;20037;-26
2022/03/07 02:16:24;;;;;;;5.10;3.72;;;;;;;12.60;30.84;96380.25;5033320;28;20103;-26
2022/03/07 02:18:51;;;;;;;5.05;4.03;;;;;;;12.67;31.00;96373.78;5033140;28;20103;-27
2022/03/07 02:21:18;;;;;;;6.82;3.80;;;;;;;12.62;31.20;96379.78;5033437;28;20025;-26
2022/03/07 02:23:45;;;;;;;5.72;3.85;;;;;;;12.64;30.88;96380.88;5033267;28;20029;-26
2022/03/07 02:26:13;;;;;;;5.40;3.90;;;;;;;12.63;30.86;96384.03;5033193;28;20052;-26
2022/03/07 02:28:40;;;;;;;5.97;3.88;;;;;;;12.73;30.99;96377.47;5033135;28;20381;-26
2022/03/07 02:31:05;;;;;;;6.82;3.70;;;;;;;12.59;31.17;96379.47;5033284;28;20025;-27
2022/03/07 02:33:33;;;;;;;7.80;3.63;;;;;;;12.63;31.27;96389.47;5033082;28;20029;-26
2022/03/07 02:35:59;;;;;;;5.90;3.88;;;;;;;12.61;31.44;96379.00;5032989;28;20025;-26
2022/03/07 02:38:24;;;;;;;6.90;3.53;;;;;;;12.62;31.27;96377.81;5033184;28;20025;-26
2022/03/07 02:40:50;;;;;;;5.22;3.65;;;;;;;12.69;31.04;96374.13;5033223;28;20381;-26
2022/03/07 02:43:16;;;;;;;6.60;4.25;;;;;;;12.70;30.82;96384.56;5033148;28;20026;-26
2022/03/07 02:45:42;;;;;;;5.28;3.70;;;;;;;12.71;30.96;96377.16;5032982;28;20049;-27
2022/03/07 02:48:08;;;;;;;5.70;4.55;;;;;;;12.51;31.36;96378.19;5032933;28;20034;-26
2022/03/07 02:50:33;;;;;;;6.57;3.95;;;;;;;12.64;31.07;96380.88;5032761;28;20048;-26
2022/03/07 02:52:59;;;;;;;6.30;4.78;;;;;;;12.65;31.10;96376.94;5032872;28;20025;-26
2022/03/07 02:55:25;;;;;;;5.50;3.75;;;;;;;12.53;31.39;96383.19;5032839;28;20033;-26
2022/03/07 02:57:51;;;;;;;6.43;3.40;;;;;;;12.59;31.27;96374.03;5033278;28;20030;-26
2022/03/07 03:00:17;;;;;;;6.18;3.67;;;;;;;12.58;31.18;96386.13;5032820;28;20022;-26
2022/03/07 03:02:43;;;;;;;5.85;3.78;;;;;;;12.58;31.26;96382.63;5032840;28;20075;-27
2022/03/07 03:05:09;;;;;;;6.00;3.83;;;;;;;12.69;31.35;96385.00;5032639;28;20077;-27
2022/03/07 03:07:34;;;;;;;7.93;4.20;;;;;;;12.55;31.19;96389.72;5032928;28;20367;-28
2022/03/07 03:10:03;;;;;;;5.43;4.10;;;;;;;12.64;30.97;96388.25;5032947;28;20025;-26
2022/03/07 03:12:28;;;;;;;6.10;3.92;;;;;;;12.63;31.12;96384.78;5031426;28;20470;-26
2022/03/07 03:14:54;;;;;;;6.18;4.15;;;;;;;12.62;31.34;96393.38;5032797;28;20025;-27
2022/03/07 03:17:20;;;;;;;5.03;3.58;;;;;;;12.63;31.51;96387.50;5032203;28;20025;-26
2022/03/07 03:19:46;;;;;;;6.30;3.95;;;;;;;12.63;31.20;96394.91;5036626;28;20394;-26
2022/03/07 03:22:11;;;;;;;5.90;4.13;;;;;;;12.56;31.49;96396.69;5036181;28;20021;-26
2022/03/07 03:24:37;;;;;;;4.90;3.50;;;;;;;12.54;31.54;96404.50;5036111;28;20109;-26
2022/03/07 03:27:04;;;;;;;4.40;3.53;;;;;;;12.59;31.46;96405.94;5036474;28;20136;-26
2022/03/07 03:29:30;;;;;;;5.22;3.90;;;;;;;12.56;31.30;96401.34;5036350;28;20367;-28
2022/03/07 03:31:56;;;;;;;6.65;4.20;;;;;;;12.62;31.23;96404.25;5036156;28;20044;-26
2022/03/07 03:34:22;;;;;;;4.35;3.20;;;;;;;12.62;31.08;96406.97;5035961;28;20068;-27
2022/03/07 03:36:47;;;;;;;5.60;4.10;;;;;;;12.50;31.64;96420.19;5036198;28;20427;-26
2022/03/07 03:39:13;;;;;;;6.32;4.30;;;;;;;12.56;31.64;96407.56;5035935;28;20036;-26
2022/03/07 03:41:39;;;;;;;6.57;3.80;;;;;;;12.62;31.23;96412.44;5036057;28;20072;-26
2022/03/07 03:44:11;;;;;;;4.93;3.60;;;;;;;12.61;31.30;96413.66;5035759;28;20025;-26
2022/03/07 03:46:37;;;;;;;9.45;4.03;;;;;;;12.62;31.39;96412.44;5034517;28;20032;-26
2022/03/07 03:49:03;;;;;;;4.57;3.60;;;;;;;12.58;31.64;96412.56;5035006;28;20057;-26
2022/03/07 03:51:29;;;;;;;7.15;3.95;;;;;;;12.62;31.38;96426.03;5035075;28;20139;-27
2022/03/07 03:53:55;;;;;;;5.75;4.07;;;;;;;12.64;31.52;96413.50;5035823;28;20382;-26
2022/03/07 03:56:20;;;;;;;7.72;3.80;;;;;;;12.68;31.32;96419.59;5035873;28;20044;-26
2022/03/07 03:58:46;;;;;;;6.47;4.40;;;;;;;12.62;31.36;96417.88;5035313;28;20022;-26
2022/03/07 04:01:12;;;;;;;8.27;5.30;;;;;;;12.55;31.37;96430.53;5035718;28;20488;-27
2022/03/07 04:03:37;;;;;;;5.57;3.78;;;;;;;12.61;31.49;96422.53;5034012;28;20042;-26
2022/03/07 04:06:06;;;;;;;5.25;3.50;;;;;;;12.56;31.48;96428.56;5035556;28;20052;-26
2022/03/07 04:08:32;;;;;;;5.25;3.97;;;;;;;12.65;31.25;96427.88;5035547;28;20036;-27
2022/03/07 04:10:58;;;;;;;7.85;4.03;;;;;;;12.61;31.46;96428.00;5035389;28;20120;-26
2022/03/07 04:13:24;;;;;;;6.55;3.88;;;;;;;12.61;31.65;96432.69;5035303;28;20068;-26
2022/03/07 04:15:49;;;;;;;7.88;4.57;;;;;;;12.50;31.77;96431.06;5035202;28;20485;-26
2022/03/07 04:18:15;;;;;;;6.63;3.80;;;;;;;12.55;31.47;96430.53;5035214;28;20382;-26
2022/03/07 04:20:41;;;;;;;7.97;4.20;;;;;;;12.59;31.86;96433.91;5035476;28;20033;-26
2022/03/07 04:23:06;;;;;;;5.85;4.00;;;;;;;12.51;31.79;96440.75;5035433;28;20461;-26
2022/03/07 04:25:33;;;;;;;6.03;3.88;;;;;;;12.56;31.99;96429.31;5034998;28;20017;-26
2022/03/07 04:28:00;;;;;;;5.88;4.20;;;;;;;12.52;32.01;96444.22;5034188;28;20032;-28
2022/03/07 04:30:26;;;;;;;5.82;3.90;;;;;;;12.63;31.45;96443.88;5035011;28;20057;-26
2022/03/07 04:32:51;;;;;;;5.03;3.78;;;;;;;12.58;31.66;96447.94;5035066;28;20063;-27
2022/03/07 04:35:17;;;;;;;5.68;3.88;;;;;;;12.45;31.99;96445.22;5034863;28;20041;-25
2022/03/07 04:37:42;;;;;;;6.18;4.38;;;;;;;12.55;32.05;96433.25;5034829;28;20030;-27
2022/03/07 04:40:14;;;;;;;5.53;3.90;;;;;;;12.50;31.75;96443.91;5034849;28;20021;-27
2022/03/07 04:42:41;;;;;;;6.00;3.88;;;;;;;12.59;31.64;96442.06;5034801;28;20450;-26
2022/03/07 04:45:07;;;;;;;4.47;3.50;;;;;;;12.47;31.83;96442.06;5034954;28;20458;-26
2022/03/07 04:47:33;;;;;;;5.50;3.97;;;;;;;12.55;32.10;96448.81;5034612;28;20044;-26
2022/03/07 04:49:58;;;;;;;7.85;4.50;;;;;;;12.49;31.83;96455.97;5034567;28;20025;-26
2022/03/07 04:52:24;;;;;;;5.40;4.05;;;;;;;12.55;31.68;96455.00;5034853;28;20026;-26
2022/03/07 04:54:50;;;;;;;6.20;4.30;;;;;;;12.61;31.90;96457.19;5034677;28;20505;-26
2022/03/07 04:57:15;;;;;;;4.68;3.65;;;;;;;12.51;31.84;96470.66;5034362;28;20037;-26
2022/03/07 04:59:43;;;;;;;5.18;3.90;;;;;;;12.53;32.10;96457.41;5033292;28;20029;-27
2022/03/07 05:02:08;;;;;;;6.57;3.80;;;;;;;12.51;31.87;96465.22;5034235;28;20466;-26
2022/03/07 05:04:34;;;;;;;5.90;3.80;;;;;;;12.48;32.16;96465.38;5034142;28;20056;-26
2022/03/07 05:06:59;;;;;;;5.18;3.55;;;;;;;12.53;32.05;96462.84;5034836;28;20060;-27
2022/03/07 05:09:25;;;;;;;5.85;4.00;;;;;;;12.37;32.26;96465.69;5034232;28;20023;-26
2022/03/07 05:11:50;;;;;;;8.32;3.92;;;;;;;12.53;31.99;96465.56;5034266;28;20022;-26
2022/03/07 05:14:18;;;;;;;5.97;4.05;;;;;;;12.39;32.51;96466.00;5034053;28;20075;-27
2022/03/07 05:16:43;;;;;;;5.88;3.92;;;;;;;12.46;32.16;96465.78;5034061;28;20029;-27
2022/03/07 05:19:09;;;;;;;6.57;4.10;;;;;;;12.48;32.16;96468.84;5034066;28;20028;-26
2022/03/07 05:21:35;;;;;;;5.82;3.97;;;;;;;12.45;32.08;96464.28;5034012;28;20025;-26
2022/03/07 05:24:01;;;;;;;7.50;4.28;;;;;;;12.36;32.50;96475.06;5033998;28;20017;-26
2022/03/07 05:26:26;;;;;;;6.38;3.85;;;;;;;12.41;32.55;96460.91;5034106;28;20096;-26
2022/03/07 05:28:52;;;;;;;5.60;3.97;;;;;;;12.44;32.57;96472.88;5033871;28;20367;-26
2022/03/07 05:31:19;;;;;;;6.53;4.15;;;;;;;12.49;32.22;96470.34;5033584;28;20398;-27
2022/03/07 05:33:44;;;;;;;6.35;3.50;;;;;;;12.50;32.29;96469.16;5034139;28;20104;-27
2022/03/07 05:36:10;;;;;;;5.72;3.60;;;;;;;12.56;32.30;96472.84;5033855;28;20104;-27
2022/03/07 05:38:35;;;;;;;5.93;3.58;;;;;;;12.50;32.18;96468.38;5034067;28;20371;-26
2022/03/07 05:41:01;;;;;;;6.60;4.22;;;;;;;12.40;32.25;96475.69;5033149;28;20035;-26
2022/03/07 05:43:27;;;;;;;5.95;3.65;;;;;;;12.52;32.43;96471.44;5033593;28;20287;-27
2022/03/07 05:45:52;;;;;;;4.18;3.40;;;;;;;12.48;32.28;96470.81;5033496;28;20026;-27
2022/03/07 05:48:18;;;;;;;8.15;4.10;;;;;;;12.40;32.36;96469.50;5033476;28;20021;-27
2022/03/07 05:50:44;;;;;;;9.70;5.03;;;;;;;12.31;32.44;96463.97;5032259;28;20394;-26
2022/03/07 05:53:09;;;;;;;5.70;3.80;;;;;;;12.47;32.32;96467.31;5033493;28;20378;-27
2022/03/07 05:55:35;;;;;;;5.53;3.60;;;;;;;12.48;32.21;96460.69;5033277;28;20025;-26
2022/03/07 05:58:01;;;;;;;5.50;3.92;;;;;;;12.46;32.54;96470.47;5033656;28;20386;-26
2022/03/07 06:00:28;;;;;;;6.15;4.30;;;;;;;12.46;32.41;96476.69;5033791;28;20036;-28
2022/03/07 06:02:54;;;;;;;6.38;3.78;;;;;;;12.43;32.50;96484.94;5033287;28;20393;-26
2022/03/07 06:05:20;;;;;;;5.13;3.80;;;;;;;12.44;32.48;96481.03;5033438;28;20028;-26
2022/03/07 06:07:45;;;;;;;5.70;3.90;;;;;;;12.43;32.39;96484.94;5033549;28;20044;-26
2022/03/07 06:10:11;;;;;;;7.15;3.65;;;;;;;12.44;32.55;96487.22;5033358;28;20018;-26
2022/03/07 06:12:37;;;;;;;5.72;3.47;;;;;;;12.47;32.29;96486.38;5033422;28;20017;-26
2022/03/07 06:15:04;;;;;;;4.63;3.30;;;;;;;12.41;32.54;96498.97;5032107;28;20108;-26
2022/03/07 06:17:36;;;;;;;5.00;3.42;;;;;;;12.49;32.50;96491.34;5033126;28;20100;-27
2022/03/07 06:20:03;;;;;;;5.22;3.83;;;;;;;12.49;32.17;96494.81;5031946;28;20071;-26
2022/03/07 06:22:29;;;;;;;5.28;3.50;;;;;;;12.53;32.46;96500.91;5033083;28;20048;-28
2022/03/07 06:24:54;;;;;;;6.22;4.35;;;;;;;12.52;32.10;96507.56;5033217;28;20060;-27
2022/03/07 06:27:20;;;;;;;5.30;3.70;;;;;;;12.51;32.51;96508.00;5033151;28;20454;-27
2022/03/07 06:29:46;;;;;;;5.55;4.35;;;;;;;12.55;32.29;96508.66;5032977;28;20068;-28
2022/03/07 06:32:11;;;;;;;5.18;3.80;;;;;;;12.42;32.49;96505.94;5033064;28;20061;-26
2022/03/07 06:34:37;;;;;;;7.13;4.18;;;;;;;12.41;32.41;96520.72;5033005;28;20036;-26
2022/03/07 06:37:03;;;;;;;6.38;3.80;;;;;;;12.55;32.33;96512.13;5031609;28;20359;-26
2022/03/07 06:39:29;;;;;;;6.60;3.70;;;;;;;12.44;32.38;96516.38;5033009;28;20524;-27
2022/03/07 06:41:55;;;;;;;4.97;3.63;;;;;;;12.32;32.56;96511.72;5030764;28;20033;-26
2022/03/07 06:44:22;;;;;;;5.75;3.58;;;;;;;12.43;32.80;96514.88;5030680;28;20036;-26
2022/03/07 06:46:47;;;;;;;5.30;3.75;;;;;;;12.39;32.76;96512.25;5030819;28;20068;-26
2022/03/07 06:49:13;;;;;;;6.35;4.38;;;;;;;12.38;32.66;96520.84;5030689;28;20057;-27
2022/03/07 06:51:39;;;;;;;6.57;4.72;;;;;;;12.44;32.34;96517.16;5032280;28;20021;-26
2022/03/07 06:54:05;;;;;;;7.10;4.90;;;;;;;12.46;32.40;96508.56;5034414;28;20539;-26
2022/03/07 06:56:31;;;;;;;9.93;5.57;;;;;;;12.43;32.72;96514.88;5034516;28;20040;-26
2022/03/07 06:58:56;;;;;;;8.73;6.00;;;;;;;12.39;32.91;96520.41;5034515;28;20040;-27
2022/03/07 07:01:22;;;;;;;10.73;5.70;;;;;;;12.41;32.73;96523.44;5034312;28;20032;-26
2022/03/07 07:03:48;;;;;;;9.18;5.53;;;;;;;12.23;33.00;96521.28;5034035;28;20072;-26
2022/03/07 07:06:14;;;;;;;7.13;5.35;;;;;;;12.30;32.79;96520.31;5034015;28;20044;-26
2022/03/07 07:08:40;;;;;;;8.63;5.03;;;;;;;12.37;32.92;96530.19;5034429;28;20025;-27
2022/03/07 07:11:05;;;;;;;10.48;5.60;;;;;;;12.41;32.64;96531.59;5032980;28;20424;-26
2022/03/07 07:13:31;;;;;;;8.88;5.43;;;;;;;12.42;32.67;96527.69;5034298;28;20025;-26
2022/03/07 07:15:56;;;;;;;9.18;5.53;;;;;;;12.42;32.70;96538.56;5032864;28;20065;-26
2022/03/07 07:18:25;;;;;;;10.73;5.18;;;;;;;12.17;33.18;96546.72;5033902;28;20029;-27
2022/03/07 07:20:52;;;;;;;8.25;5.45;;;;;;;12.30;33.13;96541.28;5034046;28;20029;-27
2022/03/07 07:23:21;;;;;;;7.53;5.15;;;;;;;12.36;32.90;96551.22;5033997;28;20029;-26
2022/03/07 07:25:47;;;;;;;8.82;5.40;;;;;;;12.37;32.69;96547.28;5033786;28;20050;-26
2022/03/07 07:28:14;;;;;;;8.43;6.05;;;;;;;12.37;32.83;96551.94;5033894;28;20378;-26
2022/03/07 07:30:40;;;;;;;5.90;4.68;;;;;;;12.45;32.61;96556.75;5032306;28;20068;-28
2022/03/07 07:33:06;;;;;;;7.18;4.90;;;;;;;12.12;33.14;96555.41;5034148;28;20053;-26
2022/03/07 07:35:34;;;;;;;5.60;4.25;;;;;;;12.27;33.32;96561.94;5033762;28;20037;-26
2022/03/07 07:38:00;;;;;;;6.85;4.82;;;;;;;12.48;32.96;96561.34;5034014;28;20036;-26
2022/03/07 07:40:26;;;;;;;6.25;4.00;;;;;;;12.55;32.62;96557.63;5033982;28;20394;-26
2022/03/07 07:42:52;;;;;;;7.40;4.47;;;;;;;12.53;32.74;96568.94;5033697;28;20458;-27
2022/03/07 07:45:18;;;;;;;5.40;4.00;;;;;;;12.34;33.31;96564.47;5033915;28;20041;-26
2022/03/07 07:47:43;;;;;;;5.25;4.20;;;;;;;12.30;33.26;96557.59;5033851;28;20026;-26
2022/03/07 07:50:10;;;;;;;6.70;4.53;;;;;;;12.35;32.99;96562.53;5033724;28;20393;-26
2022/03/07 07:52:36;;;;;;;5.75;4.18;;;;;;;12.47;33.08;96562.53;5033744;28;20684;-26
2022/03/07 07:55:04;;;;;;;5.10;3.92;;;;;;;12.37;33.42;96558.16;5033473;28;20029;-26
2022/03/07 07:57:31;;;;;;;6.13;4.00;;;;;;;11.82;34.27;96568.28;5033552;28;20115;-27
2022/03/07 07:59:56;;;;;;;5.43;3.72;;;;;;;12.28;33.70;96565.44;5033767;28;20025;-26
2022/03/07 08:02:22;;;;;;;5.30;3.80;;;;;;;12.43;33.22;96566.53;5033358;28;20067;-27
2022/03/07 08:04:51;;;;;;;5.13;3.50;;;;;;;12.42;33.27;96571.22;5032952;28;20054;-26
2022/03/07 08:07:17;;;;;;;6.70;3.88;;;;;;;12.38;33.11;96567.06;5033302;28;20099;-28
2022/03/07 08:09:43;;;;;;;5.28;3.80;;;;;;;12.35;33.58;96560.56;5033609;28;20088;-26
2022/03/07 08:12:08;;;;;;;4.55;3.30;;;;;;;12.30;33.54;96563.03;5033546;28;20033;-27
2022/03/07 08:14:34;;;;;;;7.32;3.70;;;;;;;12.31;33.38;96559.91;5034107;28;20080;-26
2022/03/07 08:17:00;;;;;;;7.93;3.83;;;;;;;12.38;33.24;96570.56;5035362;28;20470;-26
2022/03/07 08:19:25;;;;;;;6.53;3.30;;;;;;;12.45;33.19;96572.31;5035023;28;20018;-26
2022/03/07 08:21:52;;;;;;;5.35;3.47;;;;;;;12.43;33.09;96574.69;5030898;28;20017;-25
2022/03/07 08:24:17;;;;;;;6.47;3.50;;;;;;;12.36;33.31;96581.13;5033089;28;20065;-26
2022/03/07 08:26:43;;;;;;;6.28;3.60;;;;;;;12.42;33.27;96578.63;5033109;28;20118;-26
2022/03/07 08:29:08;;;;;;;6.13;3.83;;;;;;;12.44;33.62;96574.28;5033249;28;20033;-26
2022/03/07 08:31:34;;;;;;;4.05;3.40;;;;;;;12.52;33.38;96578.28;5032985;28;20033;-26
2022/03/07 08:33:59;;;;;;;3.90;3.25;;;;;;;12.47;33.44;96586.25;5031561;28;20525;-28
2022/03/07 08:36:26;;;;;;;4.78;3.22;;;;;;;12.61;32.96;96585.06;5031211;28;20049;-26
2022/03/07 08:38:52;;;;;;;5.03;3.60;;;;;;;12.45;33.77;96575.78;5032921;28;20470;-26
2022/03/07 08:41:17;;;;;;;5.32;3.55;;;;;;;12.42;33.50;96575.91;5032611;28;20124;-28
2022/03/07 08:43:45;;;;;;;6.10;4.60;;;;;;;12.47;33.49;96587.00;5032836;28;20029;-26
2022/03/07 08:46:11;;;;;;;5.72;3.85;;;;;;;12.41;33.37;96575.13;5032557;28;20025;-27
2022/03/07 08:48:37;;;;;;;5.28;3.50;;;;;;;12.38;33.72;96586.09;5032794;28;20112;-27
2022/03/07 08:51:02;;;;;;;6.13;4.00;;;;;;;12.04;34.42;96584.00;5032478;28;20116;-26
2022/03/07 08:53:28;;;;;;;4.55;3.35;;;;;;;12.06;34.45;96576.94;5032641;28;20367;-28
2022/03/07 08:55:54;;;;;;;5.63;3.50;;;;;;;12.25;34.08;96577.94;5032360;28;20025;-27
2022/03/07 08:58:19;;;;;;;6.43;3.22;;;;;;;12.30;33.85;96582.09;5032378;28;20084;-26
2022/03/07 09:00:45;;;;;;;6.78;3.33;;;;;;;12.35;34.07;96576.88;5032530;28;20079;-27
2022/03/07 09:03:10;;;;;;;4.90;3.42;;;;;;;12.35;33.78;96576.88;5032152;28;20187;-26
2022/03/07 09:05:36;;;;;;;4.70;3.33;;;;;;;12.10;34.63;96576.84;5032459;28;20029;-26
2022/03/07 09:08:02;;;;;;;6.53;3.45;;;;;;;12.29;34.14;96586.75;5032135;28;20036;-26
2022/03/07 09:10:28;;;;;;;5.35;3.50;;;;;;;12.34;34.26;96580.03;5031653;28;20047;-27
2022/03/07 09:12:54;;;;;;;5.32;3.95;;;;;;;11.28;36.63;96584.44;5034222;28;20021;-27
2022/03/07 09:15:20;;;;;;;6.28;4.30;;;;;;;11.76;35.57;96580.88;5033335;28;20025;-26
2022/03/07 09:17:45;;;;;;;5.45;4.10;;;;;;;12.07;34.86;96580.41;5034014;28;20025;-27
2022/03/07 09:20:13;;;;;;;7.50;4.85;;;;;;;12.27;34.40;96581.00;5034181;28;20117;-26
2022/03/07 09:22:39;;;;;;;5.63;4.20;;;;;;;12.41;34.01;96575.13;5033183;28;20374;-26
2022/03/07 09:25:06;;;;;;;5.97;4.18;;;;;;;12.25;34.53;96577.94;5033842;28;20395;-26
2022/03/07 09:27:32;;;;;;;5.80;4.35;;;;;;;12.33;34.30;96565.66;5034121;28;20018;-26
2022/03/07 09:29:58;;;;;;;5.45;3.72;;;;;;;12.44;33.99;96571.53;5032899;28;20033;-26
2022/03/07 09:32:23;;;;;;;5.03;3.80;;;;;;;12.29;34.25;96575.88;5033860;28;20024;-26
2022/03/07 09:34:49;;;;;;;6.72;3.75;;;;;;;12.42;33.90;96581.34;5032957;28;20555;-26
2022/03/07 09:37:15;;;;;;;4.43;3.47;;;;;;;12.35;33.89;96579.59;5033674;28;20047;-25
2022/03/07 09:39:41;;;;;;;4.10;3.33;;;;;;;12.18;34.55;96583.59;5033851;28;20026;-26
2022/03/07 09:42:07;;;;;;;4.75;3.50;;;;;;;12.27;34.22;96582.94;5033638;28;20350;-26
2022/03/07 09:44:32;;;;;;;5.53;3.22;;;;;;;11.95;35.08;96592.03;5032773;28;20075;-27
2022/03/07 09:47:00;;;;;;;4.45;3.20;;;;;;;12.13;34.89;96589.56;5033825;28;20025;-26
2022/03/07 09:49:26;;;;;;;4.03;3.10;;;;;;;12.30;34.52;96582.09;5033597;28;20032;-26
2022/03/07 09:51:53;;;;;;;5.00;2.85;;;;;;;12.15;34.77;96584.44;5033984;28;20025;-27
2022/03/07 09:54:20;;;;;;;4.05;3.10;;;;;;;12.26;34.17;96595.00;5033681;28;20021;-26
2022/03/07 09:56:46;;;;;;;4.38;3.25;;;;;;;12.54;33.63;96592.22;5033446;28;20034;-26
2022/03/07 09:59:12;;;;;;;3.90;2.78;;;;;;;12.34;34.10;96596.34;5033539;28;20374;-27
2022/03/07 10:01:38;;;;;;;3.70;2.80;;;;;;;12.51;33.65;96595.81;5033418;28;20029;-26
2022/03/07 10:04:10;;;;;;;5.03;3.15;;;;;;;12.51;33.87;96593.09;5033218;28;20437;-26
2022/03/07 10:06:36;;;;;;;5.50;3.38;;;;;;;12.49;34.20;96600.91;5033405;28;20108;-26
2022/03/07 10:09:02;;;;;;;4.47;3.35;;;;;;;12.55;33.57;96606.59;5033363;28;20021;-26
2022/03/07 10:11:31;;;;;;;4.95;3.20;;;;;;;12.41;34.22;96612.44;5033702;28;20025;-26
2022/03/07 10:14:00;;;;;;;3.92;2.78;;;;;;;12.26;34.39;96616.75;5033366;28;20034;-26
2022/03/07 10:16:39;;;;;;;4.20;3.05;;;;;;;12.42;34.45;96603.84;5033437;28;20030;-26
2022/03/07 10:19:11;;;;;;;4.13;2.63;;;;;;;12.55;33.97;96612.78;5033171;28;20021;-26
2022/03/07 10:21:43;;;;;;;7.55;2.70;;;;;;;12.11;34.52;96619.91;5033525;28;20026;-27
2022/03/07 10:24:09;;;;;;;4.10;3.10;;;;;;;12.33;34.57;96622.78;5033844;28;20028;-26
2022/03/07 10:26:34;;;;;;;4.43;3.20;;;;;;;12.26;34.62;96620.25;5034617;28;20026;-26
2022/03/07 10:29:03;;;;;;;3.80;3.05;;;;;;;12.49;34.10;96619.94;5036137;28;20509;-27
2022/03/07 10:31:29;;;;;;;5.32;3.30;;;;;;;12.23;34.51;96613.75;5037274;28;20056;-27
2022/03/07 10:34:04;;;;;;;5.63;3.33;;;;;;;11.83;35.26;96607.88;5037161;28;20036;-26
2022/03/07 10:36:34;;;;;;;4.78;3.13;;;;;;;12.17;34.61;96625.56;5036038;28;20021;-26
2022/03/07 10:39:01;;;;;;;5.43;3.25;;;;;;;11.92;35.37;96620.06;5037077;28;20037;-27
2022/03/07 10:41:38;;;;;;;4.80;3.13;;;;;;;11.89;35.48;96621.66;5035826;28;20064;-26
2022/03/07 10:44:05;;;;;;;5.05;2.60;;;;;;;11.80;35.51;96616.09;5037031;28;20067;-26
2022/03/07 10:46:31;;;;;;;3.80;2.92;;;;;;;11.86;35.27;96612.44;5037112;28;20032;-26
2022/03/07 10:48:57;;;;;;;6.40;3.33;;;;;;;11.65;35.42;96620.34;5037044;28;20037;-26
2022/03/07 10:51:25;;;;;;;4.85;3.00;;;;;;;11.97;35.17;96617.59;5037037;28;20032;-26
2022/03/07 10:53:51;;;;;;;3.72;2.65;;;;;;;12.29;34.37;96615.91;5036804;28;20043;-26
2022/03/07 10:56:18;;;;;;;3.47;2.78;;;;;;;12.04;34.75;96617.38;5037088;28;20033;-26
2022/03/07 10:58:46;;;;;;;5.22;2.97;;;;;;;12.28;34.69;96620.59;5036654;28;20509;-26
2022/03/07 11:01:12;;;;;;;18.02;4.10;;;;;;;12.45;34.32;96627.47;5036964;28;20029;-26
2022/03/07 11:03:38;;;;;;;10.55;3.42;;;;;;;12.13;34.78;96617.50;5036444;28;20148;-26
2022/03/07 11:06:04;;;;;;;5.22;2.90;;;;;;;12.45;34.23;96619.31;5036489;28;20021;-26
2022/03/07 11:08:30;;;;;;;5.30;3.13;;;;;;;12.39;34.54;96625.72;5036612;28;20029;-26
2022/03/07 11:10:57;;;;;;;8.45;4.13;;;;;;;12.25;34.42;96616.00;5033682;28;20108;-26
2022/03/07 11:13:29;;;;;;;6.57;3.30;;;;;;;12.17;34.87;96625.56;5034285;28;20026;-26
2022/03/07 11:16:00;;;;;;;8.25;3.17;;;;;;;11.84;35.40;96619.50;5035755;28;20052;-26
2022/03/07 11:18:26;;;;;;;7.00;3.67;;;;;;;12.44;34.36;96623.22;5034930;28;20021;-26
2022/03/07 11:20:54;;;;;;;5.35;3.15;;;;;;;12.39;34.06;96615.59;5036122;28;20033;-26
2022/03/07 11:23:23;;;;;;;8.48;3.22;;;;;;;12.27;34.49;96616.34;5036332;28;20120;-28
2022/03/07 11:25:53;;;;;;;7.57;3.38;;;;;;;12.37;34.42;96615.25;5034797;28;20022;-26
2022/03/07 11:28:22;;;;;;;6.05;3.08;;;;;;;11.97;34.62;96616.81;5036163;28;20385;-26
2022/03/07 11:30:48;;;;;;;7.90;3.30;;;;;;;12.51;33.70;96609.41;5034907;28;20116;-28